createdAt,value
2017-09-24T00:02:50.753Z,41.30
2017-09-24T00:05:56.056Z,44.07
2017-09-24T00:09:01.244Z,46.17
2017-09-24T00:12:06.541Z,40.50
2017-09-24T00:15:11.804Z,44.73
2017-09-24T00:18:16.924Z,45.27
2017-09-24T00:21:21.644Z,42.70
2017-09-24T00:24:27.878Z,53.93
2017-09-24T00:27:32.791Z,55.73
2017-09-24T00:30:39.109Z,43.97
2017-09-24T00:33:44.732Z,45.63
2017-09-24T00:36:50.573Z,46.57
2017-09-24T00:39:55.799Z,48.47
2017-09-24T00:43:01.172Z,45.03
2017-09-24T00:46:06.512Z,53.83
2017-09-24T00:49:12.760Z,46.53
2017-09-24T00:52:19.309Z,57.50
2017-09-24T00:55:24.447Z,50.67
2017-09-24T00:58:30.099Z,60.07
2017-09-24T01:01:35.663Z,51.17
2017-09-24T01:04:41.423Z,57.43
2017-09-24T01:07:48.283Z,53.07
2017-09-24T01:10:53.941Z,56.33
2017-09-24T01:14:00.252Z,54.90
2017-09-24T01:17:04.985Z,60.37
2017-09-24T01:20:10.708Z,46.13
2017-09-24T01:23:17.247Z,58.13
2017-09-24T01:26:22.575Z,47.77
2017-09-24T01:29:27.601Z,34.67
2017-09-24T01:32:32.629Z,39.77
2017-09-24T01:35:37.803Z,47.13
2017-09-24T01:38:44.295Z,47.73
2017-09-24T01:41:49.077Z,52.70
2017-09-24T01:44:54.843Z,42.60
2017-09-24T01:48:00.891Z,40.37
2017-09-24T01:51:07.683Z,39.00
2017-09-24T01:54:17.139Z,65.20
2017-09-24T01:57:22.928Z,107.67
2017-09-24T02:00:28.342Z,180.17
2017-09-24T02:03:33.741Z,183.93
2017-09-24T02:06:39.381Z,164.57
2017-09-24T02:09:45.837Z,126.30
2017-09-24T02:12:51.160Z,87.40
2017-09-24T02:15:56.379Z,73.10
2017-09-24T02:19:02.338Z,84.70
2017-09-24T02:22:07.856Z,85.70
2017-09-24T02:25:14.096Z,104.43
2017-09-24T02:28:20.619Z,79.53
2017-09-24T02:31:27.141Z,65.63
2017-09-24T02:34:32.454Z,81.30
2017-09-24T02:37:37.852Z,119.37
2017-09-24T02:40:43.858Z,94.53
2017-09-24T02:43:49.468Z,89.63
2017-09-24T02:46:55.122Z,85.30
2017-09-24T02:50:01.757Z,76.97
2017-09-24T02:53:07.464Z,93.63
2017-09-24T02:56:12.332Z,79.00
2017-09-24T02:59:17.302Z,128.43
2017-09-24T03:02:23.199Z,103.37
2017-09-24T03:05:28.535Z,71.97
2017-09-24T03:08:34.075Z,60.80
2017-09-24T03:11:38.948Z,67.90
2017-09-24T03:14:50.755Z,92.37
2017-09-24T03:17:57.851Z,98.13
2017-09-24T03:21:02.696Z,81.17
2017-09-24T03:24:08.046Z,74.70
2017-09-24T03:27:13.725Z,76.50
2017-09-24T03:30:19.701Z,56.87
2017-09-24T03:33:24.419Z,53.83
2017-09-24T03:36:29.324Z,65.23
2017-09-24T03:39:34.399Z,48.70
2017-09-24T03:42:39.644Z,56.53
2017-09-24T03:45:44.843Z,62.17
2017-09-24T03:48:50.531Z,53.87
2017-09-24T03:51:56.208Z,80.37
2017-09-24T03:55:01.061Z,68.17
2017-09-24T03:58:06.355Z,77.50
2017-09-24T04:01:11.588Z,78.23
2017-09-24T04:04:16.559Z,81.27
2017-09-24T04:07:22.236Z,93.90
2017-09-24T04:10:27.171Z,61.03
2017-09-24T04:13:33.471Z,65.00
2017-09-24T04:16:38.491Z,98.70
2017-09-24T04:19:43.407Z,83.13
2017-09-24T04:22:48.925Z,74.83
2017-09-24T04:25:53.941Z,118.27
2017-09-24T04:29:00.132Z,148.67
2017-09-24T04:32:05.119Z,127.20
2017-09-24T04:35:10.459Z,139.17
2017-09-24T04:38:17.772Z,88.00
2017-09-24T04:41:22.980Z,98.73
2017-09-24T04:44:28.605Z,80.10
2017-09-24T04:47:33.792Z,65.00
2017-09-24T04:50:41.622Z,51.03
2017-09-24T04:53:49.027Z,59.80
2017-09-24T04:56:54.262Z,54.00
2017-09-24T04:59:59.779Z,69.23
2017-09-24T05:03:05.037Z,119.10
2017-09-24T05:06:10.479Z,180.57
2017-09-24T05:09:16.106Z,68.13
2017-09-24T05:12:21.995Z,178.67
2017-09-24T05:15:27.216Z,498.80
2017-09-24T05:18:32.119Z,457.77
2017-09-24T05:21:37.177Z,164.33
2017-09-24T05:24:43.632Z,73.67
2017-09-24T05:27:49.295Z,168.97
2017-09-24T05:30:54.913Z,492.73
2017-09-24T05:33:59.763Z,441.13
2017-09-24T05:37:04.728Z,458.20
2017-09-24T05:40:10.519Z,92.20
2017-09-24T05:43:15.607Z,141.37
2017-09-24T05:46:21.539Z,165.10
2017-09-24T05:49:27.211Z,226.33
2017-09-24T05:52:32.174Z,60.67
2017-09-24T05:55:38.448Z,50.30
2017-09-24T05:58:43.632Z,53.33
2017-09-24T06:01:48.808Z,60.50
2017-09-24T06:04:55.157Z,72.70
2017-09-24T06:08:00.982Z,92.20
2017-09-24T06:11:09.868Z,46.53
2017-09-24T06:14:15.493Z,49.57
2017-09-24T06:17:22.253Z,64.20
2017-09-24T06:20:29.124Z,53.40
2017-09-24T06:23:34.304Z,83.27
2017-09-24T06:26:39.776Z,77.43
2017-09-24T06:29:44.504Z,66.20
2017-09-24T06:32:49.395Z,59.20
2017-09-24T06:35:54.552Z,69.50
2017-09-24T06:38:59.217Z,74.37
2017-09-24T06:42:05.339Z,106.23
2017-09-24T06:45:11.281Z,124.77
2017-09-24T06:48:17.676Z,100.90
2017-09-24T06:51:23.179Z,112.83
2017-09-24T06:54:28.648Z,105.70
2017-09-24T06:57:34.915Z,90.00
2017-09-24T07:00:39.576Z,93.70
2017-09-24T07:03:45.142Z,79.70
2017-09-24T07:06:49.888Z,67.57
2017-09-24T07:09:54.743Z,61.17
2017-09-24T07:13:00.307Z,65.23
2017-09-24T07:16:05.557Z,58.93
2017-09-24T07:19:10.719Z,54.47
2017-09-24T07:22:17.649Z,58.50
2017-09-24T07:25:24.224Z,60.73
2017-09-24T07:28:30.814Z,55.20
2017-09-24T07:31:36.425Z,45.30
2017-09-24T07:34:41.952Z,47.00
2017-09-24T07:37:47.273Z,51.10
2017-09-24T07:40:52.283Z,54.60
2017-09-24T07:43:57.030Z,48.60
2017-09-24T07:47:04.341Z,49.93
2017-09-24T07:50:09.861Z,54.20
2017-09-24T07:53:14.760Z,46.50
2017-09-24T07:56:20.244Z,57.90
2017-09-24T07:59:25.178Z,49.30
2017-09-24T08:02:31.298Z,43.90
2017-09-24T08:05:37.051Z,42.80
2017-09-24T08:08:42.083Z,51.47
2017-09-24T08:11:47.908Z,49.70
2017-09-24T08:14:52.996Z,51.43
2017-09-24T08:17:59.612Z,49.80
2017-09-24T08:21:05.058Z,50.50
2017-09-24T08:24:11.480Z,50.40
2017-09-24T08:27:16.636Z,51.63
2017-09-24T08:30:22.557Z,48.37
2017-09-24T08:33:27.656Z,54.13
2017-09-24T08:36:32.640Z,55.90
2017-09-24T08:39:38.472Z,53.27
2017-09-24T08:42:43.709Z,47.53
2017-09-24T08:45:48.665Z,46.60
2017-09-24T08:48:54.374Z,48.30
2017-09-24T08:51:59.112Z,53.37
2017-09-24T08:55:04.515Z,52.80
2017-09-24T08:58:11.087Z,51.27
2017-09-24T09:01:16.783Z,51.57
2017-09-24T09:04:21.835Z,51.53
2017-09-24T09:07:27.430Z,46.53
2017-09-24T09:10:32.365Z,52.90
2017-09-24T09:13:37.591Z,50.23
2017-09-24T09:16:42.448Z,45.57
2017-09-24T09:19:47.879Z,43.67
2017-09-24T09:22:53.420Z,40.37
2017-09-24T09:25:59.456Z,45.80
2017-09-24T09:29:04.410Z,39.60
2017-09-24T09:32:09.629Z,35.50
2017-09-24T09:35:33.675Z,30.07
2017-09-24T09:38:39.340Z,31.90
2017-09-24T09:41:46.983Z,33.93
2017-09-24T09:45:05.020Z,33.33
2017-09-24T09:48:10.105Z,37.30
2017-09-24T09:51:15.508Z,43.30
2017-09-24T09:54:20.628Z,45.83
2017-09-24T09:57:26.253Z,47.53
2017-09-24T10:00:31.494Z,44.47
2017-09-24T10:03:36.681Z,47.87
2017-09-24T10:06:53.484Z,34.63
2017-09-24T10:10:10.436Z,39.70
2017-09-24T10:13:16.086Z,38.77
2017-09-24T10:16:22.080Z,35.63
2017-09-24T10:19:27.699Z,32.97
2017-09-24T10:22:33.604Z,36.70
2017-09-24T10:25:38.836Z,32.47
2017-09-24T10:28:56.177Z,32.13
2017-09-24T10:32:14.267Z,35.67
2017-09-24T10:35:19.521Z,26.60
2017-09-24T10:38:25.960Z,32.80
2017-09-24T10:41:31.076Z,30.27
2017-09-24T10:44:37.859Z,34.37
2017-09-24T10:47:43.439Z,30.43
2017-09-24T10:50:49.430Z,31.87
2017-09-24T10:53:55.244Z,25.70
2017-09-24T10:57:00.758Z,30.57
2017-09-24T11:00:05.824Z,28.13
2017-09-24T11:03:11.109Z,56.83
2017-09-24T11:06:15.916Z,29.07
2017-09-24T11:09:21.343Z,28.80
2017-09-24T11:12:26.867Z,32.90
2017-09-24T11:15:31.889Z,25.93
2017-09-24T11:18:37.464Z,24.00
2017-09-24T11:21:43.228Z,27.50
2017-09-24T11:24:47.914Z,22.50
2017-09-24T11:27:53.396Z,27.00
2017-09-24T11:30:58.292Z,22.83
2017-09-24T11:34:04.064Z,22.67
2017-09-24T11:37:09.679Z,23.30
2017-09-24T11:40:15.223Z,22.73
2017-09-24T11:43:20.765Z,20.93
2017-09-24T11:46:25.900Z,23.73
2017-09-24T11:49:31.690Z,21.33
2017-09-24T11:52:37.187Z,20.33
2017-09-24T11:55:42.891Z,21.10
2017-09-24T11:58:48.224Z,18.73
2017-09-24T12:01:53.108Z,18.20
2017-09-24T12:05:00.744Z,21.40
2017-09-24T12:08:05.624Z,19.57
2017-09-24T12:11:11.839Z,19.70
2017-09-24T12:14:18.348Z,19.67
2017-09-24T12:17:23.248Z,17.03
2017-09-24T12:20:28.689Z,20.00
2017-09-24T12:23:34.679Z,17.93
2017-09-24T12:26:39.780Z,18.53
2017-09-24T12:29:44.825Z,17.23
2017-09-24T12:32:50.121Z,15.87
2017-09-24T12:35:55.360Z,18.13
2017-09-24T12:39:01.031Z,16.90
2017-09-24T12:42:06.117Z,16.23
2017-09-24T12:45:11.556Z,17.27
2017-09-24T12:48:16.340Z,16.60
2017-09-24T12:51:22.188Z,17.30
2017-09-24T12:54:27.732Z,22.30
2017-09-24T12:57:33.324Z,16.90
2017-09-24T13:00:39.148Z,15.83
2017-09-24T13:03:44.563Z,17.90
2017-09-24T13:06:49.652Z,16.30
2017-09-24T13:09:54.364Z,15.00
2017-09-24T13:12:59.935Z,16.50
2017-09-24T13:16:04.763Z,14.87
2017-09-24T13:19:10.584Z,15.47
2017-09-24T13:22:15.172Z,12.87
2017-09-24T13:25:20.295Z,13.40
2017-09-24T13:28:26.014Z,11.40
2017-09-24T13:31:30.938Z,13.07
2017-09-24T13:34:35.915Z,13.03
2017-09-24T13:37:40.811Z,12.40
2017-09-24T13:40:46.311Z,13.57
2017-09-24T13:43:52.100Z,15.37
2017-09-24T13:46:57.619Z,11.60
2017-09-24T13:50:02.220Z,11.43
2017-09-24T13:53:07.099Z,14.00
2017-09-24T13:56:13.421Z,14.57
2017-09-24T13:59:19.343Z,12.83
2017-09-24T14:02:24.596Z,16.50
2017-09-24T14:05:29.983Z,15.57
2017-09-24T14:08:35.919Z,12.03
2017-09-24T14:11:41.464Z,15.10
2017-09-24T14:14:46.313Z,14.43
2017-09-24T14:17:51.818Z,16.50
2017-09-24T14:20:58.024Z,13.40
2017-09-24T14:24:02.719Z,15.70
2017-09-24T14:27:08.079Z,14.20
2017-09-24T14:30:13.011Z,15.53
2017-09-24T14:33:18.097Z,20.23
2017-09-24T14:36:23.135Z,14.90
2017-09-24T14:39:27.919Z,13.50
2017-09-24T14:42:33.056Z,15.40
2017-09-24T14:45:38.817Z,14.53
2017-09-24T14:48:44.666Z,17.77
2017-09-24T14:51:50.378Z,15.20
2017-09-24T14:54:55.455Z,14.53
2017-09-24T14:58:01.269Z,15.27
2017-09-24T15:01:06.451Z,16.53
2017-09-24T15:04:11.888Z,17.70
2017-09-24T15:07:17.336Z,18.23
2017-09-24T15:10:22.711Z,20.27
2017-09-24T15:13:27.904Z,16.43
2017-09-24T15:16:32.796Z,19.47
2017-09-24T15:19:37.901Z,18.50
2017-09-24T15:22:44.051Z,16.53
2017-09-24T15:25:49.046Z,15.23
2017-09-24T15:28:53.959Z,16.87
2017-09-24T15:32:00.039Z,22.57
2017-09-24T15:35:04.993Z,19.43
2017-09-24T15:38:10.294Z,17.53
2017-09-24T15:41:15.820Z,17.73
2017-09-24T15:44:21.679Z,24.00
2017-09-24T15:47:26.599Z,25.03
2017-09-24T15:50:32.416Z,26.37
2017-09-24T15:53:37.414Z,24.60
2017-09-24T15:56:42.296Z,27.67
2017-09-24T15:59:47.899Z,22.03
2017-09-24T16:02:53.016Z,20.93
2017-09-24T16:05:58.544Z,24.63
2017-09-24T16:09:03.302Z,23.70
2017-09-24T16:12:08.653Z,22.27
2017-09-24T16:15:14.067Z,22.53
2017-09-24T16:18:19.579Z,26.77
2017-09-24T16:21:24.897Z,21.00
2017-09-24T16:24:30.411Z,21.83
2017-09-24T16:27:36.211Z,22.87
2017-09-24T16:30:41.943Z,25.40
2017-09-24T16:33:48.524Z,19.67
2017-09-24T16:36:56.672Z,18.07
2017-09-24T16:40:02.077Z,18.93
2017-09-24T16:43:08.228Z,19.60
2017-09-24T16:46:13.971Z,18.43
2017-09-24T16:49:19.328Z,21.47
2017-09-24T16:52:24.472Z,22.00
2017-09-24T16:55:29.844Z,21.93
2017-09-24T16:58:36.133Z,22.53
2017-09-24T17:01:41.303Z,21.70
2017-09-24T17:04:47.543Z,16.70
2017-09-24T17:07:52.471Z,21.73
2017-09-24T17:10:58.092Z,18.83
2017-09-24T17:14:04.192Z,17.37
2017-09-24T17:17:17.657Z,19.17
2017-09-24T17:20:24.033Z,22.53
2017-09-24T17:23:29.604Z,19.77
2017-09-24T17:26:34.943Z,18.03
2017-09-24T17:29:39.680Z,20.10
2017-09-24T17:32:45.893Z,18.43
2017-09-24T17:35:51.384Z,19.97
2017-09-24T17:38:56.788Z,19.80
2017-09-24T17:42:02.125Z,18.60
2017-09-24T17:45:07.236Z,19.17
2017-09-24T17:48:12.031Z,19.80
2017-09-24T17:51:17.793Z,22.30
2017-09-24T17:54:22.915Z,21.13
2017-09-24T17:57:27.716Z,21.20
2017-09-24T18:00:33.053Z,19.37
2017-09-24T18:03:39.372Z,21.37
2017-09-24T18:06:44.483Z,21.33
2017-09-24T18:09:49.651Z,23.40
2017-09-24T18:12:55.076Z,22.70
2017-09-24T18:16:00.586Z,24.63
2017-09-24T18:19:06.258Z,22.90
2017-09-24T18:22:11.844Z,27.07
2017-09-24T18:25:17.370Z,22.13
2017-09-24T18:28:22.232Z,22.27
2017-09-24T18:31:27.716Z,23.60
2017-09-24T18:34:34.392Z,22.00
2017-09-24T18:37:40.482Z,26.03
2017-09-24T18:40:45.576Z,23.60
2017-09-24T18:43:50.945Z,27.40
2017-09-24T18:46:57.313Z,22.70
2017-09-24T18:50:03.171Z,22.93
2017-09-24T18:53:08.084Z,24.23
2017-09-24T18:56:12.851Z,21.53
2017-09-24T18:59:18.441Z,20.57
2017-09-24T19:02:24.009Z,19.73
2017-09-24T19:05:29.259Z,21.87
2017-09-24T19:08:34.808Z,24.80
2017-09-24T19:11:39.864Z,25.13
2017-09-24T19:14:45.355Z,22.77
2017-09-24T19:17:50.291Z,21.03
2017-09-24T19:20:55.649Z,22.30
2017-09-24T19:24:00.825Z,24.90
2017-09-24T19:27:05.624Z,27.60
2017-09-24T19:30:11.205Z,24.40
2017-09-24T19:33:16.456Z,31.27
2017-09-24T19:36:22.804Z,25.10
2017-09-24T19:39:28.567Z,23.27
2017-09-24T19:42:34.132Z,24.77
2017-09-24T19:45:38.984Z,24.37
2017-09-24T19:48:44.522Z,21.63
2017-09-24T19:51:49.724Z,23.80
2017-09-24T19:54:55.144Z,23.97
2017-09-24T19:58:00.536Z,25.20
2017-09-24T20:01:05.756Z,28.30
2017-09-24T20:04:10.708Z,22.60
2017-09-24T20:07:16.075Z,21.47
2017-09-24T20:10:20.884Z,24.53
2017-09-24T20:13:25.785Z,23.67
2017-09-24T20:16:31.222Z,22.67
2017-09-24T20:19:35.908Z,19.10
2017-09-24T20:22:40.889Z,22.73
2017-09-24T20:25:46.279Z,24.27
2017-09-24T20:28:51.407Z,22.93
2017-09-24T20:31:57.365Z,25.03
2017-09-24T20:35:03.410Z,23.40
2017-09-24T20:38:08.748Z,24.87
2017-09-24T20:41:14.072Z,23.30
2017-09-24T20:44:18.927Z,22.30
2017-09-24T20:47:24.183Z,22.43
2017-09-24T20:50:29.422Z,22.70
2017-09-24T20:53:35.685Z,24.20
2017-09-24T20:56:40.759Z,24.53
2017-09-24T20:59:46.303Z,24.33
2017-09-24T21:02:51.320Z,25.07
2017-09-24T21:05:56.303Z,27.30
2017-09-24T21:09:01.697Z,27.83
2017-09-24T21:12:07.105Z,28.57
2017-09-24T21:15:12.546Z,25.97
2017-09-24T21:18:17.651Z,23.70
2017-09-24T21:21:23.371Z,27.03
2017-09-24T21:24:29.820Z,22.80
2017-09-24T21:27:34.839Z,23.37
2017-09-24T21:30:40.601Z,25.40
2017-09-24T21:33:45.743Z,24.83
2017-09-24T21:36:50.991Z,25.70
2017-09-24T21:39:56.656Z,28.23
2017-09-24T21:43:02.203Z,26.20
2017-09-24T21:46:07.615Z,25.53
2017-09-24T21:49:12.944Z,25.00
2017-09-24T21:52:18.455Z,30.83
2017-09-24T21:55:23.351Z,25.93
2017-09-24T21:58:28.644Z,27.53
2017-09-24T22:01:34.352Z,27.53
2017-09-24T22:04:39.275Z,28.10
2017-09-24T22:07:44.480Z,29.43
2017-09-24T22:10:50.781Z,28.07
2017-09-24T22:13:55.567Z,27.90
2017-09-24T22:17:01.196Z,26.57
2017-09-24T22:20:06.265Z,28.03
2017-09-24T22:23:12.257Z,29.57
2017-09-24T22:26:18.438Z,30.10
2017-09-24T22:29:24.538Z,33.40
2017-09-24T22:32:29.623Z,32.53
2017-09-24T22:35:35.103Z,30.30
2017-09-24T22:38:40.081Z,34.47
2017-09-24T22:41:45.513Z,31.17
2017-09-24T22:44:51.752Z,31.23
2017-09-24T22:47:57.283Z,33.00
2017-09-24T22:51:02.947Z,30.40
2017-09-24T22:54:08.243Z,32.50
2017-09-24T22:57:13.710Z,36.03
2017-09-24T23:00:18.995Z,32.20
2017-09-24T23:03:24.953Z,32.40
2017-09-24T23:06:31.380Z,32.60
2017-09-24T23:09:36.440Z,38.20
2017-09-24T23:12:41.639Z,34.90
2017-09-24T23:15:47.177Z,31.17
2017-09-24T23:18:52.579Z,32.03
2017-09-24T23:21:57.884Z,36.17
2017-09-24T23:25:03.594Z,42.03
2017-09-24T23:28:08.666Z,35.20
2017-09-24T23:31:14.820Z,34.77
2017-09-24T23:34:20.201Z,34.30
2017-09-24T23:37:26.096Z,36.80
2017-09-24T23:40:31.703Z,38.10
2017-09-24T23:43:37.344Z,34.47
2017-09-24T23:46:42.758Z,39.80
2017-09-24T23:49:49.095Z,40.83
2017-09-24T23:52:54.369Z,43.40
2017-09-24T23:55:59.695Z,48.87
2017-09-24T23:59:05.254Z,45.50
